createdAt,value
2023-03-31T00:01:16.022Z,5.82
2023-03-31T00:06:19.285Z,2.28
2023-03-31T00:11:22.920Z,5.70
2023-03-31T00:16:25.915Z,3.45
2023-03-31T00:21:35.151Z,2.33
2023-03-31T00:26:38.348Z,2.97
2023-03-31T00:31:41.344Z,5.00
2023-03-31T00:36:48.035Z,7.33
2023-03-31T00:41:51.134Z,2.65
2023-03-31T00:46:53.951Z,6.63
2023-03-31T00:52:02.795Z,6.93
2023-03-31T00:57:07.187Z,1.88
2023-03-31T01:02:10.253Z,1.52
2023-03-31T01:07:26.035Z,1.50
2023-03-31T01:12:29.172Z,5.47
2023-03-31T01:17:32.277Z,6.27
2023-03-31T01:28:29.985Z,1.35
2023-03-31T01:33:33.443Z,2.60
2023-03-31T01:38:54.540Z,1.38
2023-03-31T01:44:15.914Z,8.98
2023-03-31T01:49:21.526Z,4.15
2023-03-31T01:54:34.766Z,2.45
2023-03-31T01:59:59.854Z,5.93
2023-03-31T02:05:27.191Z,1.02
2023-03-31T02:10:31.347Z,0.63
2023-03-31T02:20:43.145Z,3.25
2023-03-31T02:25:53.971Z,1.20
2023-03-31T02:31:23.087Z,3.08
2023-03-31T02:36:26.088Z,2.08
2023-03-31T02:41:28.896Z,5.30
2023-03-31T02:46:33.028Z,2.20
2023-03-31T02:51:55.531Z,5.05
2023-03-31T02:57:43.637Z,3.25
2023-03-31T03:03:05.004Z,2.75
2023-03-31T03:08:28.143Z,1.05
2023-03-31T03:13:52.218Z,1.50
2023-03-31T03:18:59.333Z,1.90
2023-03-31T03:24:02.165Z,5.53
2023-03-31T03:29:04.936Z,1.60
2023-03-31T03:34:07.878Z,8.07
2023-03-31T03:39:10.694Z,7.65
2023-03-31T03:44:13.555Z,5.13
2023-03-31T03:49:16.409Z,4.75
2023-03-31T03:54:19.260Z,5.35
2023-03-31T03:59:22.095Z,2.10
2023-03-31T04:04:24.997Z,1.25
2023-03-31T04:09:28.024Z,8.68
2023-03-31T04:14:30.774Z,3.05
2023-03-31T04:19:33.532Z,2.88
2023-03-31T04:24:39.093Z,0.98
2023-03-31T04:29:42.970Z,4.45
2023-03-31T04:34:46.936Z,1.60
2023-03-31T04:39:51.003Z,2.15
2023-03-31T04:44:53.709Z,5.03
2023-03-31T04:49:56.403Z,3.53
2023-03-31T04:54:59.165Z,5.07
2023-03-31T05:00:08.246Z,2.60
2023-03-31T05:05:12.575Z,6.28
2023-03-31T05:10:15.382Z,1.35
2023-03-31T05:15:18.361Z,3.28
2023-03-31T05:20:21.932Z,2.63
2023-03-31T05:25:24.698Z,4.05
2023-03-31T05:30:28.103Z,2.10
2023-03-31T05:35:31.094Z,2.95
2023-03-31T05:40:33.905Z,1.75
2023-03-31T05:45:37.849Z,0.80
2023-03-31T05:50:40.747Z,1.20
2023-03-31T05:55:43.466Z,1.70
2023-03-31T06:00:46.277Z,2.47
2023-03-31T06:05:49.701Z,6.80
2023-03-31T06:10:52.590Z,7.13
2023-03-31T06:15:59.824Z,4.32
2023-03-31T06:21:02.857Z,3.00
2023-03-31T06:26:18.077Z,3.42
2023-03-31T06:31:22.918Z,1.35
2023-03-31T06:36:25.998Z,1.90
2023-03-31T06:41:28.942Z,1.98
2023-03-31T06:46:31.809Z,7.55
2023-03-31T06:51:34.574Z,4.07
2023-03-31T06:56:37.436Z,4.13
2023-03-31T07:01:42.938Z,1.60
2023-03-31T07:06:45.940Z,6.85
2023-03-31T07:11:48.738Z,6.05
2023-03-31T07:16:51.588Z,0.50
2023-03-31T07:21:54.660Z,8.55
2023-03-31T07:26:57.335Z,0.95
2023-03-31T07:32:00.154Z,2.05
2023-03-31T07:37:02.983Z,3.22
2023-03-31T07:42:05.793Z,6.72
2023-03-31T07:47:08.621Z,1.40
2023-03-31T07:52:11.677Z,2.63
2023-03-31T07:57:18.040Z,1.15
2023-03-31T08:02:20.954Z,0.60
2023-03-31T08:07:24.083Z,15.80
2023-03-31T08:12:26.929Z,7.20
2023-03-31T08:17:29.670Z,0.90
2023-03-31T08:22:32.482Z,2.85
2023-03-31T08:27:36.875Z,3.95
2023-03-31T08:32:39.754Z,1.80
2023-03-31T08:37:42.916Z,1.23
2023-03-31T08:42:50.562Z,3.47
2023-03-31T08:47:57.876Z,2.53
2023-03-31T08:53:19.996Z,2.30
2023-03-31T08:58:31.899Z,1.33
2023-03-31T09:04:02.207Z,7.63
2023-03-31T09:09:11.669Z,2.95
2023-03-31T09:14:17.490Z,5.00
2023-03-31T09:19:39.364Z,0.43
2023-03-31T09:24:48.256Z,1.88
2023-03-31T09:29:59.106Z,6.30
2023-03-31T09:35:18.366Z,1.15
2023-03-31T09:40:23.549Z,2.75
2023-03-31T09:45:26.451Z,1.05
2023-03-31T09:50:31.215Z,1.63
2023-03-31T09:55:44.122Z,2.20
2023-03-31T10:01:07.336Z,7.78
2023-03-31T10:06:11.392Z,5.07
2023-03-31T10:11:14.569Z,1.90
2023-03-31T10:16:29.439Z,1.35
2023-03-31T10:21:38.054Z,1.17
2023-03-31T10:26:41.420Z,1.48
2023-03-31T10:31:44.315Z,1.90
2023-03-31T10:36:49.253Z,1.48
2023-03-31T10:41:53.098Z,1.70
2023-03-31T10:46:56.191Z,2.40
2023-03-31T10:52:01.378Z,1.35
2023-03-31T10:57:06.579Z,2.78
2023-03-31T11:02:36.628Z,4.82
2023-03-31T11:08:01.389Z,2.67
2023-03-31T11:13:41.559Z,6.18
2023-03-31T11:18:51.612Z,2.53
2023-03-31T11:24:33.237Z,3.72
2023-03-31T11:29:47.441Z,3.03
2023-03-31T11:35:14.714Z,4.85
2023-03-31T11:40:32.647Z,6.35
2023-03-31T11:45:39.388Z,2.00
2023-03-31T11:50:44.286Z,1.17
2023-03-31T11:55:49.431Z,2.00
2023-03-31T12:01:11.220Z,5.72
2023-03-31T12:06:19.895Z,3.15
2023-03-31T12:11:29.192Z,3.63
2023-03-31T12:16:41.547Z,3.95
2023-03-31T12:21:49.635Z,4.35
2023-03-31T12:27:15.326Z,9.85
2023-03-31T12:32:21.830Z,4.00
2023-03-31T12:38:04.140Z,5.47
2023-03-31T12:43:24.788Z,2.22
2023-03-31T12:48:44.525Z,1.02
2023-03-31T12:54:08.077Z,1.83
2023-03-31T12:59:34.000Z,3.00
2023-03-31T13:04:37.820Z,4.53
2023-03-31T13:09:43.093Z,2.17
2023-03-31T13:14:48.755Z,5.70
2023-03-31T13:19:52.074Z,1.23
2023-03-31T13:24:54.952Z,3.97
2023-03-31T13:29:58.045Z,4.78
2023-03-31T13:35:07.341Z,2.55
2023-03-31T13:40:19.218Z,2.25
2023-03-31T13:45:57.536Z,0.85
2023-03-31T13:51:21.008Z,1.75
2023-03-31T13:56:58.472Z,3.90
2023-03-31T14:02:37.494Z,3.20
2023-03-31T14:08:15.079Z,3.33
2023-03-31T14:13:25.764Z,4.57
2023-03-31T14:18:34.639Z,7.50
2023-03-31T14:24:01.796Z,1.98
2023-03-31T14:29:20.034Z,6.18
2023-03-31T14:34:54.086Z,2.78
2023-03-31T14:39:58.501Z,3.13
2023-03-31T14:50:18.351Z,10.13
2023-03-31T14:55:26.603Z,4.10
2023-03-31T15:00:33.609Z,11.60
2023-03-31T15:05:38.545Z,7.22
2023-03-31T15:10:44.596Z,3.53
2023-03-31T15:15:47.539Z,5.85
2023-03-31T15:20:51.092Z,5.78
2023-03-31T15:26:08.529Z,3.60
2023-03-31T15:31:11.889Z,4.05
2023-03-31T15:36:15.279Z,3.23
2023-03-31T15:41:18.140Z,1.55
2023-03-31T15:46:26.497Z,3.42
2023-03-31T15:51:37.588Z,3.60
2023-03-31T15:56:45.777Z,4.38
2023-03-31T16:01:50.403Z,7.70
2023-03-31T16:07:07.925Z,4.90
2023-03-31T16:12:36.599Z,2.55
2023-03-31T16:17:49.389Z,8.82
2023-03-31T16:22:54.684Z,3.00
2023-03-31T16:28:01.728Z,5.10
2023-03-31T16:33:07.788Z,6.60
2023-03-31T16:38:12.766Z,9.70
2023-03-31T16:43:20.056Z,2.97
2023-03-31T16:48:24.535Z,4.78
2023-03-31T16:53:29.338Z,4.90
2023-03-31T16:58:32.267Z,11.02
2023-03-31T17:03:37.144Z,10.07
2023-03-31T17:08:40.248Z,5.45
2023-03-31T17:13:44.062Z,15.60
2023-03-31T17:18:46.874Z,9.27
2023-03-31T17:23:50.142Z,11.98
2023-03-31T17:28:53.018Z,5.77
2023-03-31T17:33:57.394Z,5.38
2023-03-31T17:39:00.676Z,8.63
2023-03-31T17:44:05.002Z,4.47
2023-03-31T17:49:08.677Z,8.20
2023-03-31T17:54:11.877Z,9.88
2023-03-31T17:59:14.594Z,3.13
2023-03-31T18:04:17.662Z,5.80
2023-03-31T18:09:20.891Z,3.10
2023-03-31T18:14:23.613Z,14.40
2023-03-31T18:19:26.255Z,21.20
2023-03-31T18:24:29.173Z,0.65
2023-03-31T18:29:32.167Z,7.22
2023-03-31T18:34:37.069Z,2.25
2023-03-31T18:39:39.772Z,7.07
2023-03-31T18:44:42.541Z,10.95
2023-03-31T18:49:45.246Z,6.75
2023-03-31T18:54:48.109Z,8.25
2023-03-31T18:59:50.866Z,15.40
2023-03-31T19:04:53.841Z,20.77
2023-03-31T19:09:56.720Z,20.77
2023-03-31T19:14:59.475Z,18.83
2023-03-31T19:20:02.315Z,24.95
2023-03-31T19:25:06.430Z,18.10
2023-03-31T19:30:17.728Z,11.82
2023-03-31T19:35:20.616Z,16.00
2023-03-31T19:40:23.634Z,13.77
2023-03-31T19:45:26.479Z,8.83
2023-03-31T19:50:29.206Z,10.57
2023-03-31T19:55:32.251Z,2.95
2023-03-31T20:00:34.955Z,7.03
2023-03-31T20:05:38.118Z,8.15
2023-03-31T20:10:41.936Z,7.57
2023-03-31T20:15:44.857Z,4.53
2023-03-31T20:20:48.199Z,7.75
2023-03-31T20:25:52.024Z,13.25
2023-03-31T20:36:11.185Z,8.63
2023-03-31T20:41:14.962Z,6.97
2023-03-31T20:51:22.389Z,7.27
2023-03-31T20:56:27.898Z,8.40
2023-03-31T21:01:33.614Z,7.63
2023-03-31T21:06:44.983Z,3.70
2023-03-31T21:11:47.807Z,6.63
2023-03-31T21:16:50.639Z,5.60
2023-03-31T21:21:53.410Z,5.80
2023-03-31T21:26:56.332Z,6.73
2023-03-31T21:32:00.028Z,5.27
2023-03-31T21:42:05.349Z,8.43
2023-03-31T21:47:08.197Z,7.18
2023-03-31T21:52:10.899Z,6.70
2023-03-31T21:57:14.042Z,9.02
2023-03-31T22:02:16.906Z,7.30
2023-03-31T22:07:19.625Z,4.20
2023-03-31T22:12:22.433Z,19.60
2023-03-31T22:17:26.314Z,19.47
2023-03-31T22:22:29.123Z,25.70
2023-03-31T22:27:31.981Z,21.40
2023-03-31T22:32:34.719Z,16.20
2023-03-31T22:37:37.572Z,16.03
2023-03-31T22:42:40.254Z,14.00
2023-03-31T22:47:43.004Z,15.10
2023-03-31T22:52:46.384Z,16.57
2023-03-31T22:57:49.160Z,16.90
2023-03-31T23:02:52.174Z,19.03
2023-03-31T23:07:54.944Z,12.35
2023-03-31T23:12:58.036Z,7.43
2023-03-31T23:18:00.860Z,12.60
2023-03-31T23:23:04.056Z,12.07
2023-03-31T23:28:07.488Z,10.20
2023-03-31T23:33:10.301Z,11.10
2023-03-31T23:38:12.957Z,12.45
2023-03-31T23:43:16.767Z,13.17
2023-03-31T23:48:19.632Z,11.65
2023-03-31T23:53:22.492Z,12.13
2023-03-31T23:58:26.588Z,12.52
